Wokal Field Glasgow International Airport Glasgow US
ICAO: KGGW
IATA: GGW
Category: Medium
Scheduled Services: Yes

Elevation: 2296 ft
TransAlt. 18000 ft.

Airport Communications:
ASOS:135.175
SALT LAKE CITY CNTR:126.85
GREAT FALLS RDO:122.25
CTAF/UNICOM:122.8

KGGW Zoom In..

If you have problems with the map follow the link
https://www.worldairports.se/pages/airport.php?
ICAO=KGGW

Runways:

(A) RW 08 length 5000 ft width 75 ft
---- / hdg 79

(B) RW 12 length 5002 ft width 100 ft
---- / hdg 123

(C) RW 26 length 5000 ft width 75 ft
---- / hdg 259

(D) RW 30 length 5002 ft width 100 ft
---- / hdg 303

Location; KGGW
Day. 18 / Time. 01.53 Zulu
* Altimeter: 30.36
* Temperature: -17° c. -1.4°f.
* Wind from: 310° Speed 08 kn.
Dewpoint: -21° c.
Visibility: 4 Statute Miles.
Clouds: Overcast 4600 ft.
Conditions: Light Snow.

KGGW 180153Z AUTO 31008KT 4SM -SN OVC046 M17/M21 A3036 RMK AO2 SLP348 P0001 T11721211


Wind From 310°
Speed 08 kn.

 
 
jpsmedia.com for Web Design worldairports.se 2019   terms of use